Time;durP1;ratioP1;P1;durP2;ratioP2;P2;SDS_P1;SDS_P2;PMS_P1;PMS_P2;Temp;Humidity;BMP_temperature;BMP_pressure;BME280_temperature;BME280_humidity;BME280_pressure;Samples;Min_cycle;Max_cycle;Signal;HPM_P1;HPM_P2
2022/02/02 00:00:44;;;;;;;12.70;2.50;;;6.00;97.30;;;;;;5053562;28;20421;-78
2022/02/02 00:03:10;;;;;;;9.57;2.03;;;6.10;97.30;;;;;;5052179;28;20202;-76
2022/02/02 00:08:20;;;;;;;7.53;2.27;;;6.10;97.30;;;;;;5053556;28;20464;-78
2022/02/02 00:13:41;;;;;;;12.60;2.27;;;6.20;97.30;;;;;;5053681;28;20421;-79
2022/02/02 00:21:07;;;;;;;14.40;3.30;;;6.20;97.30;;;;;;5053693;28;20183;-78
2022/02/02 00:23:39;;;;;;;17.33;2.97;;;6.20;97.30;;;;;;5052809;28;20418;-78
2022/02/02 00:26:10;;;;;;;31.57;3.90;;;6.20;97.30;;;;;;5052236;28;20511;-78
2022/02/02 00:28:41;;;;;;;10.37;2.90;;;6.20;97.30;;;;;;5052351;28;20499;-78
2022/02/02 00:31:11;;;;;;;27.07;2.80;;;6.20;97.30;;;;;;5052121;28;20456;-78
2022/02/02 00:33:48;;;;;;;9.07;2.27;;;6.10;97.30;;;;;;5052323;28;20402;-78
2022/02/02 00:36:21;;;;;;;16.23;2.83;;;6.10;97.30;;;;;;5053293;28;20406;-79
2022/02/02 00:38:47;;;;;;;8.30;2.00;;;6.10;97.30;;;;;;5052727;28;20450;-77
2022/02/02 00:41:13;;;;;;;14.37;2.97;;;6.10;97.30;;;;;;5052790;28;20970;-78
2022/02/02 00:43:40;;;;;;;12.83;3.00;;;6.10;97.30;;;;;;5052708;28;20222;-78
2022/02/02 00:46:06;;;;;;;18.47;2.43;;;6.20;97.30;;;;;;5052819;28;20183;-77
2022/02/02 00:48:33;;;;;;;7.63;2.10;;;6.20;97.30;;;;;;5052014;28;20419;-78
2022/02/02 00:50:59;;;;;;;8.57;2.37;;;6.20;97.30;;;;;;5050953;28;20172;-77
2022/02/02 00:53:25;;;;;;;15.70;3.80;;;6.20;97.30;;;;;;5051508;28;20421;-78
2022/02/02 00:55:52;;;;;;;24.03;3.27;;;6.20;97.30;;;;;;5051120;28;20282;-78
2022/02/02 00:58:18;;;;;;;8.20;2.77;;;6.20;97.30;;;;;;5053151;28;20167;-77
2022/02/02 01:00:44;;;;;;;19.13;3.03;;;6.20;97.30;;;;;;5052019;28;20410;-78
2022/02/02 01:03:09;;;;;;;17.00;2.47;;;6.20;97.30;;;;;;5057000;28;20257;-77
2022/02/02 01:05:35;;;;;;;8.70;2.17;;;6.10;97.30;;;;;;5055285;28;20184;-77
2022/02/02 01:08:37;;;;;;;8.43;2.17;;;6.20;97.30;;;;;;5057229;28;20799;-78
2022/02/02 01:11:02;;;;;;;14.13;2.63;;;6.20;97.30;;;;;;5056418;28;20603;-78
2022/02/02 01:14:15;;;;;;;20.23;2.33;;;6.20;97.30;;;;;;5058599;28;20406;-79
2022/02/02 01:19:26;;;;;;;13.87;2.20;;;6.10;97.30;;;;;;5056267;28;20474;-79
2022/02/02 01:29:45;;;;;;;11.03;2.67;;;6.10;97.30;;;;;;5058336;28;20409;-79
2022/02/02 01:32:11;;;;;;;11.73;2.23;;;6.10;97.30;;;;;;5061552;28;20517;-78
2022/02/02 01:34:37;;;;;;;10.77;2.43;;;6.10;97.30;;;;;;5059490;28;20172;-79
2022/02/02 01:37:02;;;;;;;14.20;3.00;;;6.10;97.30;;;;;;5061488;28;20187;-79
2022/02/02 01:39:29;;;;;;;8.07;3.50;;;6.10;97.30;;;;;;5060254;28;20203;-79
2022/02/02 01:41:57;;;;;;;10.67;2.27;;;6.10;97.30;;;;;;5061772;28;20211;-80
2022/02/02 01:44:32;;;;;;;15.73;3.17;;;6.10;97.30;;;;;;5059291;28;20422;-79
2022/02/02 01:46:58;;;;;;;13.97;2.10;;;6.10;97.30;;;;;;5060106;28;20417;-79
2022/02/02 01:52:27;;;;;;;16.87;2.80;;;6.10;97.30;;;;;;5059058;28;20433;-79
2022/02/02 01:54:56;;;;;;;7.03;2.23;;;6.20;97.30;;;;;;5057050;28;20417;-78
2022/02/02 01:59:58;;;;;;;11.73;1.77;;;6.10;97.30;;;;;;5055574;28;20998;-77
2022/02/02 02:02:24;;;;;;;8.33;2.40;;;6.10;97.30;;;;;;5054324;28;20521;-76
2022/02/02 02:04:49;;;;;;;14.70;2.70;;;6.10;97.30;;;;;;5056409;28;20501;-79
2022/02/02 02:07:15;;;;;;;8.77;1.87;;;6.10;97.30;;;;;;5054067;28;20687;-81
2022/02/02 02:09:41;;;;;;;8.80;2.60;;;6.10;97.30;;;;;;5054326;28;20186;-80
2022/02/02 02:12:09;;;;;;;14.67;2.93;;;6.10;97.30;;;;;;5054536;28;20199;-79
2022/02/02 02:17:01;;;;;;;10.90;2.13;;;6.10;97.30;;;;;;5056305;28;20510;-79
2022/02/02 02:19:26;;;;;;;19.43;2.63;;;6.10;97.30;;;;;;5054439;28;20474;-79
2022/02/02 02:21:53;;;;;;;14.13;2.30;;;6.20;97.30;;;;;;5056704;28;20184;-79
2022/02/02 02:24:19;;;;;;;5.70;1.97;;;6.20;97.30;;;;;;5056206;28;20195;-79
2022/02/02 02:26:45;;;;;;;13.00;2.20;;;6.20;97.30;;;;;;5058561;28;20414;-79
2022/02/02 02:29:40;;;;;;;13.20;2.27;;;6.20;97.30;;;;;;5058412;28;20176;-79
2022/02/02 02:32:46;;;;;;;13.73;2.20;;;6.20;97.30;;;;;;5056306;28;20195;-78
2022/02/02 02:57:10;;;;;;;18.20;3.53;;;6.10;97.30;;;;;;5055397;28;20413;-78
2022/02/02 02:59:47;;;;;;;22.90;3.03;;;6.10;97.30;;;;;;5052567;28;20486;-78
2022/02/02 03:30:42;;;;;;;14.87;2.60;;;5.90;97.30;;;;;;5058380;28;20532;-80
2022/02/02 03:34:27;;;;;;;7.47;1.60;;;5.90;97.30;;;;;;5048632;28;20936;-78
2022/02/02 03:51:29;;;;;;;8.73;1.87;;;5.60;97.30;;;;;;5053912;28;20433;-78
2022/02/02 03:56:35;;;;;;;6.60;1.93;;;5.60;97.30;;;;;;5053358;28;20430;-78
2022/02/02 03:59:14;;;;;;;5.63;2.03;;;5.50;97.30;;;;;;5051562;28;20978;-77
2022/02/02 04:02:04;;;;;;;6.20;1.70;;;5.50;97.30;;;;;;5053043;28;21176;-77
2022/02/02 04:04:55;;;;;;;4.87;1.63;;;5.50;97.30;;;;;;5052168;28;20411;-77
2022/02/02 04:07:32;;;;;;;9.97;1.73;;;5.40;97.30;;;;;;5052494;28;20920;-76
2022/02/02 04:10:03;;;;;;;31.83;2.47;;;5.40;97.30;;;;;;5051286;28;20411;-76
2022/02/02 04:12:37;;;;;;;5.90;2.23;;;5.40;97.30;;;;;;5052178;28;20804;-77
2022/02/02 04:16:14;;;;;;;7.33;2.10;;;5.40;97.30;;;;;;5050706;28;20449;-77
2022/02/02 04:59:40;;;;;;;17.20;2.10;;;5.00;97.30;;;;;;5055509;28;20454;-77
2022/02/02 05:04:44;;;;;;;6.27;2.30;;;5.00;97.30;;;;;;5056319;28;20445;-79
2022/02/02 05:07:16;;;;;;;5.20;1.70;;;5.00;97.30;;;;;;5056672;28;20422;-79
2022/02/02 05:10:06;;;;;;;5.77;2.40;;;5.00;97.30;;;;;;5054912;28;20422;-78
2022/02/02 05:18:19;;;;;;;16.00;2.13;;;5.00;97.30;;;;;;5055611;28;20969;-77
2022/02/02 05:24:20;;;;;;;14.87;2.70;;;5.00;97.30;;;;;;5059316;28;20441;-77
2022/02/02 05:45:12;;;;;;;12.90;3.80;;;5.10;97.30;;;;;;5076611;28;20488;-79
2022/02/02 05:53:07;;;;;;;12.77;1.97;;;5.20;97.30;;;;;;5076531;28;20479;-78
2022/02/02 05:55:40;;;;;;;17.50;3.10;;;5.20;97.30;;;;;;5074248;28;20477;-78
2022/02/02 05:58:09;;;;;;;14.10;4.30;;;5.30;97.30;;;;;;5073533;28;20179;-78
2022/02/02 06:00:43;;;;;;;15.97;2.40;;;5.30;97.30;;;;;;5070292;28;20453;-77
2022/02/02 06:03:14;;;;;;;10.90;2.50;;;5.20;97.30;;;;;;5056128;28;20431;-78
2022/02/02 06:05:42;;;;;;;19.40;2.93;;;5.20;97.30;;;;;;5073382;28;20402;-77
2022/02/02 06:08:12;;;;;;;14.40;3.30;;;5.20;97.30;;;;;;5073451;28;20414;-77
2022/02/02 06:10:40;;;;;;;8.90;2.60;;;5.20;97.30;;;;;;5067397;28;20501;-78
2022/02/02 06:13:05;;;;;;;21.53;2.40;;;5.10;97.30;;;;;;5053145;28;20449;-75
2022/02/02 06:15:32;;;;;;;10.70;1.80;;;5.10;97.30;;;;;;5053751;28;20426;-80
2022/02/02 06:18:01;;;;;;;12.93;2.47;;;5.00;97.30;;;;;;5053203;28;20310;-79
2022/02/02 06:20:26;;;;;;;3.20;1.97;;;5.00;97.30;;;;;;5051025;28;20450;-79
2022/02/02 06:23:03;;;;;;;4.57;2.20;;;5.00;97.30;;;;;;5051563;28;20430;-78
2022/02/02 06:25:33;;;;;;;11.00;2.10;;;4.90;97.30;;;;;;5052405;28;20159;-80
2022/02/02 06:28:02;;;;;;;13.97;2.00;;;4.90;97.30;;;;;;5051195;28;20449;-78
2022/02/02 06:30:29;;;;;;;7.80;1.63;;;4.90;97.30;;;;;;5051025;28;20446;-78
2022/02/02 06:33:11;;;;;;;13.90;2.40;;;4.90;97.30;;;;;;5051507;28;20444;-78
2022/02/02 06:35:37;;;;;;;5.60;1.40;;;4.80;97.30;;;;;;5052388;28;20422;-78
2022/02/02 06:38:04;;;;;;;12.70;2.77;;;4.80;97.30;;;;;;5050718;28;20417;-77
2022/02/02 06:40:30;;;;;;;16.50;1.77;;;4.80;97.30;;;;;;5051965;28;20462;-77
2022/02/02 06:42:57;;;;;;;12.93;1.90;;;4.80;97.30;;;;;;5052353;28;20503;-77
2022/02/02 06:45:24;;;;;;;4.70;2.17;;;4.80;97.30;;;;;;5051695;28;20483;-79
2022/02/02 06:47:53;;;;;;;13.70;2.10;;;4.90;97.30;;;;;;5053210;28;20784;-78
2022/02/02 06:50:30;;;;;;;9.43;2.63;;;4.90;97.30;;;;;;5050933;28;20414;-79
2022/02/02 06:53:17;;;;;;;12.43;1.70;;;4.90;97.30;;;;;;5052573;28;20643;-81
2022/02/02 06:56:19;;;;;;;10.57;3.13;;;4.90;97.30;;;;;;5053175;28;20943;-78
2022/02/02 07:02:01;;;;;;;5.97;2.10;;;5.00;97.30;;;;;;5054885;28;20452;-81
2022/02/02 07:04:54;;;;;;;17.57;2.00;;;5.00;97.30;;;;;;5052858;28;20411;-81
2022/02/02 07:07:48;;;;;;;10.63;2.30;;;5.00;97.30;;;;;;5053471;28;20403;-78
2022/02/02 07:10:29;;;;;;;11.77;2.40;;;5.10;97.30;;;;;;5054506;28;20391;-80
2022/02/02 07:13:48;;;;;;;12.57;2.57;;;5.10;97.30;;;;;;5052950;28;20438;-78
2022/02/02 07:24:33;;;;;;;14.47;3.10;;;5.20;97.30;;;;;;5031630;28;20476;-79
2022/02/02 07:32:23;;;;;;;14.43;3.27;;;5.30;97.30;;;;;;5052328;28;20210;-78
2022/02/02 07:34:48;;;;;;;15.10;3.30;;;5.30;97.30;;;;;;5057354;28;20673;-80
2022/02/02 07:37:27;;;;;;;5.87;1.60;;;5.20;97.30;;;;;;5057090;28;20411;-79
2022/02/02 07:39:56;;;;;;;9.40;2.80;;;5.30;97.30;;;;;;5057499;28;20469;-81
2022/02/02 07:42:25;;;;;;;10.47;2.30;;;5.30;97.30;;;;;;5058616;28;20492;-80
2022/02/02 07:44:53;;;;;;;11.63;2.23;;;5.40;97.30;;;;;;5058843;28;20429;-82
2022/02/02 07:47:20;;;;;;;12.93;2.50;;;5.40;97.30;;;;;;5056872;28;20414;-81
2022/02/02 07:49:52;;;;;;;10.30;2.70;;;5.40;97.30;;;;;;5054452;28;20500;-75
2022/02/02 07:52:19;;;;;;;17.50;3.00;;;5.40;97.30;;;;;;5050390;28;20447;-78
2022/02/02 07:54:47;;;;;;;12.53;2.90;;;5.50;97.30;;;;;;5052133;28;20607;-78
2022/02/02 07:57:20;;;;;;;12.60;2.77;;;5.50;97.30;;;;;;5050330;28;20422;-79
2022/02/02 07:59:59;;;;;;;7.97;2.63;;;5.60;97.30;;;;;;5051817;28;20611;-76
2022/02/02 08:05:35;;;;;;;11.23;2.80;;;5.60;97.30;;;;;;5048914;28;20422;-77
2022/02/02 08:10:29;;;;;;;7.60;2.30;;;5.60;97.30;;;;;;5048192;28;20426;-77
2022/02/02 08:13:02;;;;;;;9.87;3.10;;;5.70;97.30;;;;;;5048670;28;20445;-77
2022/02/02 08:15:31;;;;;;;8.90;2.20;;;5.70;97.30;;;;;;5048942;28;20406;-77
2022/02/02 08:17:57;;;;;;;21.07;2.60;;;5.70;97.30;;;;;;5048162;28;20512;-77
2022/02/02 08:20:25;;;;;;;8.03;2.40;;;5.70;97.30;;;;;;5048738;28;20484;-77
2022/02/02 08:22:51;;;;;;;13.70;3.00;;;5.70;97.30;;;;;;5050719;28;20488;-77
2022/02/02 08:25:25;;;;;;;14.03;1.90;;;5.70;97.30;;;;;;5049480;28;20911;-77
2022/02/02 08:27:53;;;;;;;14.87;2.60;;;5.80;97.30;;;;;;5048997;28;20225;-77
2022/02/02 08:30:21;;;;;;;15.00;2.27;;;5.80;97.30;;;;;;5050399;28;20496;-77
2022/02/02 08:32:52;;;;;;;13.20;3.27;;;5.80;97.30;;;;;;5050041;28;20427;-77
2022/02/02 08:35:22;;;;;;;10.63;3.23;;;5.80;97.30;;;;;;5049057;28;20422;-77
2022/02/02 08:37:56;;;;;;;10.93;2.43;;;5.80;97.30;;;;;;5048941;28;20428;-77
2022/02/02 08:40:44;;;;;;;9.90;2.50;;;5.90;97.30;;;;;;5048875;28;20508;-77
2022/02/02 08:43:18;;;;;;;10.10;4.33;;;5.90;97.30;;;;;;5050744;28;20525;-77
2022/02/02 08:45:46;;;;;;;12.10;2.67;;;5.90;97.30;;;;;;5049793;28;21108;-77
2022/02/02 08:48:18;;;;;;;13.53;3.10;;;5.90;97.30;;;;;;5049799;28;20424;-77
2022/02/02 08:50:51;;;;;;;17.33;3.20;;;5.90;97.30;;;;;;5049668;28;20399;-75
2022/02/02 08:58:32;;;;;;;11.93;2.23;;;5.90;97.30;;;;;;5050062;28;21001;-77
2022/02/02 09:01:01;;;;;;;10.67;2.10;;;6.00;97.30;;;;;;5048745;28;20406;-76
2022/02/02 09:06:12;;;;;;;12.10;2.73;;;6.00;97.30;;;;;;5049661;28;20412;-77
2022/02/02 09:08:39;;;;;;;12.83;2.43;;;5.90;97.30;;;;;;5048453;28;20492;-77
2022/02/02 09:23:10;;;;;;;17.63;2.60;;;6.00;97.30;;;;;;5050797;28;20525;-76
2022/02/02 09:35:39;;;;;;;4.37;1.63;;;6.20;97.30;;;;;;5053425;28;20409;-77
2022/02/02 09:38:04;;;;;;;7.43;1.97;;;6.30;97.30;;;;;;5053662;28;20456;-77
2022/02/02 09:43:17;;;;;;;9.37;2.23;;;6.30;97.30;;;;;;5054335;28;20309;-77
2022/02/02 09:45:59;;;;;;;13.40;2.57;;;6.30;97.30;;;;;;5053429;28;20441;-78
2022/02/02 09:48:30;;;;;;;15.37;2.67;;;6.20;97.30;;;;;;5051564;28;20455;-77
2022/02/02 09:51:02;;;;;;;8.67;1.83;;;6.30;97.30;;;;;;5051775;28;20423;-77
2022/02/02 09:53:45;;;;;;;13.90;2.93;;;6.40;97.30;;;;;;5051137;28;20420;-76
2022/02/02 10:07:10;;;;;;;12.83;2.53;;;6.40;97.30;;;;;;5051654;28;20438;-77
2022/02/02 10:09:56;;;;;;;5.63;1.90;;;6.40;97.30;;;;;;5051725;28;20418;-78
2022/02/02 10:15:34;;;;;;;10.67;2.07;;;6.40;97.30;;;;;;5053606;28;20477;-77
2022/02/02 10:18:04;;;;;;;4.83;2.03;;;6.40;97.30;;;;;;5047875;28;20555;-77
2022/02/02 10:20:30;;;;;;;5.83;2.27;;;6.50;97.30;;;;;;5051773;28;20472;-75
2022/02/02 10:22:58;;;;;;;10.20;2.47;;;6.70;97.30;;;;;;5051236;28;20443;-77
2022/02/02 10:25:28;;;;;;;3.10;2.00;;;6.80;97.30;;;;;;5052282;28;20502;-77
2022/02/02 10:28:07;;;;;;;14.97;2.80;;;6.70;97.30;;;;;;5052842;28;20774;-77
2022/02/02 10:30:33;;;;;;;12.43;2.50;;;6.70;97.30;;;;;;5053514;28;20410;-76
2022/02/02 10:32:59;;;;;;;7.63;2.43;;;6.60;97.30;;;;;;5051724;28;20532;-77
2022/02/02 10:35:36;;;;;;;9.03;2.07;;;6.60;97.30;;;;;;5037466;28;21008;-78
2022/02/02 10:38:08;;;;;;;4.30;1.50;;;6.80;97.30;;;;;;5032669;28;20168;-77
2022/02/02 10:43:42;;;;;;;6.10;1.63;;;6.90;97.30;;;;;;5032375;28;20418;-77
2022/02/02 10:46:11;;;;;;;5.47;1.43;;;6.80;97.30;;;;;;5032570;28;20403;-76
2022/02/02 10:48:51;;;;;;;7.43;1.37;;;6.70;97.30;;;;;;5031300;28;20477;-77
2022/02/02 10:51:32;;;;;;;6.70;2.40;;;6.60;97.30;;;;;;5030658;28;20467;-77
2022/02/02 11:07:09;;;;;;;7.33;1.83;;;6.50;97.30;;;;;;5032036;28;20406;-78
2022/02/02 11:09:35;;;;;;;5.27;1.67;;;6.50;97.30;;;;;;5030530;28;20954;-78
2022/02/02 11:12:04;;;;;;;6.00;1.93;;;6.50;97.30;;;;;;5030408;28;20453;-77
2022/02/02 11:14:39;;;;;;;10.20;1.70;;;6.40;97.30;;;;;;5029774;28;20442;-77
2022/02/02 11:17:32;;;;;;;5.57;1.73;;;6.40;97.30;;;;;;5031531;28;20411;-77
2022/02/02 11:20:01;;;;;;;14.60;2.07;;;6.40;97.30;;;;;;5029768;28;20494;-77
2022/02/02 11:22:55;;;;;;;8.03;1.73;;;6.40;97.30;;;;;;5029880;28;20510;-77
2022/02/02 11:25:23;;;;;;;5.87;1.67;;;6.40;97.30;;;;;;5029715;28;20411;-77
2022/02/02 11:27:57;;;;;;;5.93;1.80;;;6.40;97.30;;;;;;5030149;28;20419;-76
2022/02/02 11:30:26;;;;;;;4.80;1.60;;;6.40;97.30;;;;;;5029585;28;20746;-77
2022/02/02 11:33:12;;;;;;;11.70;2.20;;;6.40;97.30;;;;;;5029976;28;20834;-77
2022/02/02 11:35:46;;;;;;;8.77;2.63;;;6.50;97.30;;;;;;5045317;28;20960;-76
2022/02/02 11:38:23;;;;;;;7.90;1.70;;;6.50;97.30;;;;;;5049829;28;20558;-77
2022/02/02 11:41:16;;;;;;;6.53;2.00;;;6.60;97.30;;;;;;5049259;28;20511;-76
2022/02/02 11:43:59;;;;;;;5.37;1.70;;;6.60;97.30;;;;;;5049893;28;20836;-77
2022/02/02 11:46:47;;;;;;;8.90;1.90;;;6.70;97.30;;;;;;5049324;28;20413;-78
2022/02/02 11:49:17;;;;;;;5.77;1.90;;;6.70;96.90;;;;;;5050673;28;20489;-77
2022/02/02 11:51:44;;;;;;;8.23;2.50;;;6.70;97.30;;;;;;5050479;28;20476;-77
2022/02/02 11:54:12;;;;;;;4.73;1.97;;;6.70;97.30;;;;;;5049127;28;20421;-77
2022/02/02 11:57:23;;;;;;;25.03;2.53;;;6.60;97.30;;;;;;5048933;28;20418;-77
2022/02/02 12:05:26;;;;;;;6.33;2.00;;;6.70;97.30;;;;;;5051206;28;20429;-77
2022/02/02 12:08:18;;;;;;;6.87;2.03;;;6.60;97.30;;;;;;5050432;28;20844;-77
2022/02/02 12:48:00;;;;;;;4.53;1.60;;;6.60;97.30;;;;;;5007686;28;20448;-76
2022/02/02 12:58:33;;;;;;;6.73;2.07;;;6.50;97.30;;;;;;5034379;28;20418;-77
2022/02/02 13:01:09;;;;;;;4.63;1.93;;;6.40;97.30;;;;;;5032365;28;20430;-77
2022/02/02 13:03:37;;;;;;;2.90;1.40;;;6.50;97.30;;;;;;5032964;28;20463;-77
2022/02/02 13:06:03;;;;;;;3.77;1.60;;;6.50;97.30;;;;;;5033189;28;20414;-77
2022/02/02 13:08:28;;;;;;;7.00;2.33;;;6.40;97.30;;;;;;5033270;28;20502;-76
2022/02/02 13:10:54;;;;;;;4.90;2.07;;;6.30;97.30;;;;;;5033161;28;20544;-76
2022/02/02 13:13:29;;;;;;;5.50;1.40;;;6.20;97.30;;;;;;5032739;28;20180;-76
2022/02/02 13:16:14;;;;;;;9.70;1.47;;;6.10;97.30;;;;;;5034377;28;20172;-76
2022/02/02 13:18:43;;;;;;;3.70;2.00;;;6.10;97.30;;;;;;5031598;28;20561;-76
2022/02/02 13:21:32;;;;;;;10.93;1.33;;;6.10;97.30;;;;;;5032333;28;20473;-76
2022/02/02 13:26:46;;;;;;;8.13;1.70;;;6.80;97.30;;;;;;5034194;28;20521;-77
2022/02/02 13:34:32;;;;;;;8.53;1.87;;;6.80;97.30;;;;;;5037692;28;20421;-78
2022/02/02 13:38:08;;;;;;;5.63;1.67;;;6.50;97.30;;;;;;5051877;28;20422;-76
2022/02/02 14:01:31;;;;;;;7.47;1.50;;;6.40;97.30;;;;;;5052973;28;20442;-76
2022/02/02 14:09:59;;;;;;;11.50;1.80;;;7.50;97.30;;;;;;5032351;28;20458;-77
2022/02/02 14:31:36;;;;;;;12.97;2.03;;;6.80;96.00;;;;;;5032415;28;20428;-77
2022/02/02 14:34:02;;;;;;;4.30;1.30;;;6.70;95.80;;;;;;5034272;28;20422;-76
2022/02/02 14:36:33;;;;;;;9.83;1.77;;;6.60;96.40;;;;;;5049876;28;20503;-76
2022/02/02 14:39:17;;;;;;;4.03;1.60;;;6.50;97.00;;;;;;5052890;28;20453;-77
2022/02/02 14:46:43;;;;;;;7.73;1.53;;;6.40;97.30;;;;;;5052192;28;20638;-76
2022/02/02 14:49:15;;;;;;;6.97;1.43;;;6.30;97.30;;;;;;5050987;28;20425;-77
2022/02/02 15:27:39;;;;;;;3.23;1.87;;;5.50;97.30;;;;;;5051607;28;20850;-77
2022/02/02 15:32:52;;;;;;;6.67;1.50;;;5.60;97.30;;;;;;5051521;28;20429;-77
2022/02/02 15:35:18;;;;;;;12.10;1.80;;;5.70;97.30;;;;;;5037040;28;20431;-77
2022/02/02 15:40:15;;;;;;;13.43;7.70;;;5.70;97.30;;;;;;5031234;28;20466;-77
2022/02/02 15:58:44;;;;;;;5.70;2.40;;;5.40;97.30;;;;;;5031064;28;20729;-76
2022/02/02 16:03:57;;;;;;;1.70;1.67;;;5.40;97.30;;;;;;5030877;28;20752;-77
2022/02/02 16:06:25;;;;;;;6.03;1.60;;;5.40;97.30;;;;;;5029483;28;20446;-77
2022/02/02 16:09:00;;;;;;;7.30;2.50;;;5.40;97.30;;;;;;5030394;28;20849;-76
2022/02/02 16:11:29;;;;;;;3.77;1.80;;;5.40;97.30;;;;;;5030518;28;20773;-76
2022/02/02 16:14:03;;;;;;;3.80;1.40;;;5.40;97.30;;;;;;5028668;28;20422;-77
2022/02/02 16:19:01;;;;;;;4.37;1.30;;;5.40;97.30;;;;;;5030023;28;20470;-76
2022/02/02 16:35:50;;;;;;;7.60;1.70;;;5.30;97.30;;;;;;5030634;28;20473;-76
2022/02/02 16:38:19;;;;;;;2.70;1.40;;;5.30;97.30;;;;;;5030539;28;20449;-76
2022/02/02 16:40:49;;;;;;;5.77;1.83;;;5.30;97.30;;;;;;5030592;28;20956;-76
2022/02/02 16:43:15;;;;;;;3.47;1.70;;;5.20;97.30;;;;;;5029327;28;20463;-76
2022/02/02 16:45:44;;;;;;;3.63;1.80;;;5.20;97.30;;;;;;5030780;28;20396;-76
2022/02/02 16:48:10;;;;;;;6.50;1.50;;;5.20;97.30;;;;;;5029034;28;20430;-76
2022/02/02 16:50:39;;;;;;;9.03;1.90;;;5.10;97.30;;;;;;5029095;28;20419;-76
2022/02/02 16:53:22;;;;;;;5.20;1.63;;;5.10;97.30;;;;;;5029843;28;20442;-76
2022/02/02 17:33:28;;;;;;;6.83;2.53;;;5.00;97.30;;;;;;5050366;28;20437;-77
2022/02/02 17:38:34;;;;;;;7.30;1.33;;;5.10;97.30;;;;;;5050010;28;20406;-76
2022/02/02 17:41:15;;;;;;;13.10;1.50;;;5.00;97.30;;;;;;5048084;28;20267;-77
2022/02/02 18:20:52;;;;;;;3.00;1.57;;;4.60;97.30;;;;;;5051916;28;20469;-76
2022/02/02 18:23:31;;;;;;;7.90;1.60;;;4.60;97.30;;;;;;5050246;28;21029;-75
2022/02/02 18:26:15;;;;;;;5.50;1.60;;;4.60;97.30;;;;;;5050829;28;20500;-76
2022/02/02 18:34:10;;;;;;;8.20;1.67;;;4.80;97.30;;;;;;5051772;28;20406;-76
2022/02/02 18:36:49;;;;;;;8.80;2.00;;;4.90;97.30;;;;;;5050845;28;20431;-75
2022/02/02 18:52:42;;;;;;;12.67;2.43;;;4.90;97.30;;;;;;5051289;28;20265;-76
2022/02/02 18:55:19;;;;;;;6.63;2.00;;;4.90;97.30;;;;;;5051287;28;20422;-76
2022/02/02 19:06:36;;;;;;;5.20;1.70;;;5.20;97.30;;;;;;5058230;28;20432;-76
2022/02/02 19:31:33;;;;;;;11.40;2.00;;;4.80;97.30;;;;;;5059663;28;20792;-75
2022/02/02 20:11:07;;;;;;;10.60;2.63;;;4.00;97.30;;;;;;5065493;28;20424;-75
2022/02/02 20:13:38;;;;;;;6.20;2.30;;;4.00;97.30;;;;;;5053382;28;20787;-75
2022/02/02 20:16:05;;;;;;;14.93;2.80;;;4.00;97.30;;;;;;5063553;28;20414;-75
2022/02/02 20:18:35;;;;;;;11.33;2.03;;;3.90;97.30;;;;;;5056787;28;20457;-75
2022/02/02 20:21:05;;;;;;;8.73;3.53;;;3.90;97.30;;;;;;5061258;28;20457;-75
2022/02/02 20:23:31;;;;;;;12.00;3.47;;;3.80;97.30;;;;;;5063632;28;20464;-75
2022/02/02 20:25:57;;;;;;;9.00;2.00;;;3.70;97.30;;;;;;5052269;28;20422;-75
2022/02/02 20:28:22;;;;;;;14.53;5.10;;;3.70;97.30;;;;;;5066444;28;20259;-75
2022/02/02 20:30:48;;;;;;;4.77;2.10;;;3.60;97.30;;;;;;5057764;28;20175;-75
2022/02/02 20:33:14;;;;;;;16.83;11.67;;;3.60;97.30;;;;;;5066342;28;20273;-75
2022/02/02 20:35:40;;;;;;;11.10;2.77;;;3.50;97.30;;;;;;5064368;28;20175;-75
2022/02/02 20:38:06;;;;;;;9.20;2.37;;;3.50;97.30;;;;;;5066980;28;20936;-76
2022/02/02 20:40:31;;;;;;;8.70;1.87;;;3.50;97.30;;;;;;5054794;28;20202;-75
2022/02/02 21:04:19;;;;;;;7.33;1.77;;;3.60;97.30;;;;;;5061611;28;20445;-75
2022/02/02 21:14:39;;;;;;;18.20;3.37;;;3.70;97.30;;;;;;5063251;28;20524;-75
2022/02/02 21:17:07;;;;;;;26.87;4.03;;;3.80;97.30;;;;;;5060531;28;20447;-75
2022/02/02 21:19:53;;;;;;;15.23;3.77;;;3.90;97.30;;;;;;5051425;28;20470;-75
2022/02/02 21:22:20;;;;;;;48.50;13.50;;;3.90;97.30;;;;;;5051061;28;20618;-76
2022/02/02 21:25:05;;;;;;;19.80;5.63;;;3.90;97.30;;;;;;5050981;28;20416;-75
2022/02/02 21:27:38;;;;;;;44.13;10.67;;;3.90;97.30;;;;;;5057030;28;20495;-75
2022/02/02 21:30:05;;;;;;;22.50;7.77;;;3.90;97.30;;;;;;5047257;28;20414;-75
2022/02/02 21:32:30;;;;;;;30.27;11.17;;;3.90;97.30;;;;;;5029883;28;20435;-75
2022/02/02 21:35:03;;;;;;;10.63;3.40;;;3.80;97.30;;;;;;5043297;28;20440;-75
2022/02/02 21:37:31;;;;;;;7.97;2.73;;;3.80;97.30;;;;;;5051180;28;20697;-76
2022/02/02 21:40:05;;;;;;;12.53;2.10;;;3.70;97.30;;;;;;5049812;28;20461;-75
2022/02/02 21:42:31;;;;;;;22.90;6.30;;;3.70;97.30;;;;;;5050127;28;20478;-76
2022/02/02 21:44:57;;;;;;;13.27;3.23;;;3.70;97.30;;;;;;5049307;28;20422;-75
2022/02/02 21:47:23;;;;;;;17.60;2.80;;;3.70;97.30;;;;;;5050948;28;20597;-75
2022/02/02 21:49:55;;;;;;;12.27;3.73;;;3.60;97.30;;;;;;5051573;28;20184;-76
2022/02/02 21:52:21;;;;;;;13.53;2.60;;;3.60;97.30;;;;;;5053387;28;20191;-76
2022/02/02 21:54:47;;;;;;;15.77;5.20;;;3.60;97.30;;;;;;5053904;28;20779;-75
2022/02/02 21:57:12;;;;;;;10.47;3.77;;;3.60;97.30;;;;;;5052841;28;20517;-75
2022/02/02 21:59:38;;;;;;;31.43;12.67;;;3.60;97.30;;;;;;5051086;28;20195;-75
2022/02/02 22:02:04;;;;;;;12.77;2.80;;;3.50;97.30;;;;;;5051183;28;20192;-75
2022/02/02 22:04:29;;;;;;;6.03;2.50;;;3.50;97.30;;;;;;5052645;28;20168;-75
2022/02/02 22:06:55;;;;;;;14.13;2.53;;;3.40;97.30;;;;;;5052884;28;20418;-75
2022/02/02 22:09:21;;;;;;;8.00;2.50;;;3.40;97.30;;;;;;5048801;28;20180;-76
2022/02/02 22:11:46;;;;;;;6.30;1.73;;;3.20;97.30;;;;;;5041467;28;20216;-76
2022/02/02 22:14:19;;;;;;;7.27;2.13;;;3.10;97.30;;;;;;5039732;28;20223;-75
2022/02/02 22:16:47;;;;;;;5.53;1.70;;;3.10;97.30;;;;;;5063385;28;20209;-74
2022/02/02 22:19:13;;;;;;;7.60;2.50;;;3.00;97.30;;;;;;5066862;28;20859;-74
2022/02/02 22:21:39;;;;;;;8.70;3.10;;;2.90;97.30;;;;;;5065496;28;20438;-75
2022/02/02 22:24:05;;;;;;;4.17;2.33;;;2.90;97.30;;;;;;5051819;28;20258;-74
2022/02/02 22:26:31;;;;;;;10.23;2.50;;;2.90;97.30;;;;;;5034604;28;20526;-74
2022/02/02 22:28:57;;;;;;;6.80;1.93;;;2.80;97.30;;;;;;5040903;28;20501;-77
2022/02/02 22:31:22;;;;;;;8.20;2.47;;;2.70;97.30;;;;;;5047757;28;20450;-77
2022/02/02 22:33:48;;;;;;;13.50;2.20;;;2.60;97.30;;;;;;5031865;28;20790;-77
2022/02/02 22:36:14;;;;;;;7.50;2.33;;;2.60;97.30;;;;;;5031488;28;20244;-77
2022/02/02 22:38:43;;;;;;;11.30;2.40;;;2.60;97.30;;;;;;5031524;28;20172;-76
2022/02/02 22:41:12;;;;;;;7.20;2.83;;;2.50;97.30;;;;;;5032068;28;20537;-77
2022/02/02 22:43:45;;;;;;;8.80;2.23;;;2.50;97.30;;;;;;5031214;28;20420;-76
2022/02/02 22:46:11;;;;;;;6.87;2.20;;;2.50;97.30;;;;;;5031336;28;20455;-77
2022/02/02 22:48:39;;;;;;;7.97;2.90;;;2.50;97.30;;;;;;5031134;28;20969;-77
2022/02/02 22:51:05;;;;;;;12.53;2.83;;;2.50;97.30;;;;;;5031047;28;20462;-77
2022/02/02 22:53:31;;;;;;;13.70;3.20;;;2.40;97.30;;;;;;5032417;28;20439;-75
2022/02/02 22:55:56;;;;;;;16.30;2.33;;;2.40;97.30;;;;;;5031114;28;20680;-76
2022/02/02 22:58:22;;;;;;;5.50;2.13;;;2.40;97.30;;;;;;5030812;28;20507;-76
2022/02/02 23:00:49;;;;;;;12.60;2.93;;;2.30;97.30;;;;;;5031711;28;20219;-75
2022/02/02 23:03:21;;;;;;;8.03;2.73;;;2.30;97.30;;;;;;5032122;28;20267;-76
2022/02/02 23:05:52;;;;;;;9.50;2.50;;;2.20;97.30;;;;;;5030674;28;20418;-74
2022/02/02 23:08:20;;;;;;;6.90;1.93;;;2.20;97.30;;;;;;5031910;28;20471;-75
2022/02/02 23:10:45;;;;;;;8.87;2.03;;;2.20;97.30;;;;;;5030516;28;20443;-76
2022/02/02 23:13:12;;;;;;;13.43;3.00;;;2.20;97.30;;;;;;5031608;28;20435;-76
2022/02/02 23:15:53;;;;;;;14.97;3.10;;;2.20;97.30;;;;;;5030685;28;20176;-76
2022/02/02 23:18:22;;;;;;;9.07;3.23;;;2.20;97.30;;;;;;5031984;28;20476;-75
2022/02/02 23:20:53;;;;;;;7.80;3.17;;;2.20;97.30;;;;;;5031555;28;20463;-76
2022/02/02 23:23:21;;;;;;;9.20;3.20;;;2.20;97.30;;;;;;5030559;28;20437;-76
2022/02/02 23:25:48;;;;;;;3.27;1.67;;;2.20;97.30;;;;;;5029078;28;20996;-75
2022/02/02 23:28:19;;;;;;;11.53;3.20;;;2.20;97.30;;;;;;5029320;28;20419;-76
2022/02/02 23:30:45;;;;;;;8.53;2.63;;;2.20;97.30;;;;;;5030013;28;20415;-76
2022/02/02 23:33:11;;;;;;;19.53;3.10;;;2.10;97.30;;;;;;5031675;28;20443;-76
2022/02/02 23:35:39;;;;;;;9.30;2.60;;;2.10;97.30;;;;;;5031763;28;20904;-76
2022/02/02 23:38:06;;;;;;;13.63;2.30;;;2.00;97.30;;;;;;5030326;28;20257;-76
2022/02/02 23:40:53;;;;;;;10.23;2.80;;;2.00;97.30;;;;;;5030866;28;20597;-76
2022/02/02 23:43:23;;;;;;;10.47;2.77;;;2.00;97.30;;;;;;5031446;28;20466;-76
2022/02/02 23:45:57;;;;;;;14.00;4.33;;;1.90;97.30;;;;;;5030436;28;20897;-76
2022/02/02 23:48:25;;;;;;;12.17;1.93;;;1.90;97.30;;;;;;5031482;28;20502;-76
2022/02/02 23:50:53;;;;;;;15.50;3.50;;;1.90;97.30;;;;;;5031271;28;20411;-76
2022/02/02 23:53:22;;;;;;;11.97;2.50;;;1.90;97.30;;;;;;5029839;28;20446;-76
2022/02/02 23:56:01;;;;;;;12.73;2.23;;;1.90;97.30;;;;;;5034982;28;20610;-74